LNG Borno — ZCDW4 — position and weather

sailwx.info

Track history (hours):
 
Tides and Currents Weather Stations Pressure Air Temp Water Temp Dewpoint Dewpoint Depression Visibility Wind Speed Wind Dir Waves Ship Positions

LNG Borno

Last reported at 2018-Apr-05 06:32 UTC. Time now 2018-Apr-24 10:16 UTC.
Position N 27°48' W 013°53'.
Warning: this ship's position is 19 days out of date.

Length 285 m; draft 9.2 m.

Type: Ship (hazmat cat A). MMSI: 310543000.

Date/timePositionNaut miles runAvg speedWind from/ knotsBaromVisibWave heightAir tempDewpointWater temp
2018-Apr-05 06:32N 27°48' W 013°53'120.0
2018-Apr-05 06:30N 27°48' W 013°53'1520.3
2018-Apr-05 05:46N 28°00' W 013°43'720.4
2018-Apr-05 05:26N 28°06' W 013°38'2920.4
2018-Apr-05 04:00N 28°30' W 013°20'1020.2
2018-Apr-05 03:30N 28°39' W 013°14'1020.3
2018-Apr-05 03:00N 28°47' W 013°07'1020.5
2018-Apr-05 02:30N 28°56' W 013°01'56619.3
2018-Apr-03 21:14N 35°59' W 005°35'416.6
2018-Apr-03 21:01N 35°59' W 005°30'816.9
2018-Apr-03 20:31N 36°01' W 005°20'22115.8
2018-Apr-03 06:33N 37°16' W 001°01'215.7
2018-Apr-03 06:23N 37°17' W 000°58'615.5
2018-Apr-03 06:00N 37°21' W 000°52'815.1
2018-Apr-03 05:28N 37°27' W 000°45'715.2
2018-Apr-03 05:00N 37°32' W 000°38'815.1
2018-Apr-03 04:30N 37°37' W 000°31'815.4
2018-Apr-03 04:00N 37°43' W 000°25'815.6
2018-Apr-03 03:30N 37°49' W 000°19'715.1
2018-Apr-03 03:00N 37°55' W 000°14'714.8
2018-Apr-03 02:30N 38°02' W 000°09'2415.3
2018-Apr-03 00:55N 38°22' E 000°07'715.0
2018-Apr-03 00:28N 38°28' E 000°12'17515.8
2018-Apr-02 13:25N 40°59' E 002°06'715.3
2018-Apr-02 12:59N 41°05' E 002°10'714.3
2018-Apr-02 12:30N 41°11' E 002°12'713.4
2018-Apr-02 12:00N 41°18' E 002°10'3 5.2
2018-Apr-02 11:30N 41°21' E 002°10'0 0.0
2018-Apr-02 11:00N 41°21' E 002°10'0 0.0
2018-Apr-02 10:30N 41°21' E 002°10'0 0.0
2018-Apr-01 12:04N 41°20' E 002°10'0 4.4
2018-Apr-01 12:00N 41°20' E 002°10'3 5.9
2018-Apr-01 11:30N 41°17' E 002°11'4 8.8
2018-Apr-01 11:00N 41°13' E 002°12'612.7
2018-Apr-01 10:30N 41°07' E 002°12'917.7
2018-Apr-01 10:00N 40°59' E 002°06'21818.6
2018-Mar-31 22:18N 37°50' W 000°15'1318.9
2018-Mar-31 21:37N 37°40' W 000°25'218.7
2018-Mar-31 21:30N 37°38' W 000°27'918.7
2018-Mar-31 21:00N 37°31' W 000°34'1019.4
2018-Mar-31 20:30N 37°24' W 000°42'1019.3
2018-Mar-31 20:00N 37°17' W 000°51'919.1
2018-Mar-31 19:30N 37°11' W 001°00'1319.1
2018-Mar-31 18:50N 37°03' W 001°13'20318.8
2018-Mar-31 08:00N 35°60' W 005°13'1122.7
2018-Mar-31 07:31N 35°57' W 005°27'56018.2
2018-Mar-30 00:48N 29°04' W 012°55'618.2
2018-Mar-30 00:27N 28°59' W 012°59'918.2
2018-Mar-29 23:59N 28°51' W 013°04'918.5
2018-Mar-29 23:29N 28°44' W 013°10'918.9
2018-Mar-29 23:00N 28°36' W 013°16'918.6
2018-Mar-29 22:30N 28°28' W 013°22'918.3
2018-Mar-29 22:00N 28°21' W 013°27'1418.3
2018-Mar-29 21:15N 28°09' W 013°36'618.6
2018-Mar-29 20:55N 28°04' W 013°40'818.5
2018-Mar-29 20:30N 27°58' W 013°44'918.6
2018-Mar-29 20:01N 27°50' W 013°51'918.6
2018-Mar-29 19:30N 27°43' W 013°58'918.4
2018-Mar-29 19:00N 27°36' W 014°04'918.2
2018-Mar-29 18:30N 27°29' W 014°11'918.1
2018-Mar-29 18:01N 27°22' W 014°17'1018.1
2018-Mar-29 17:29N 27°15' W 014°24'918.3
2018-Mar-29 17:01N 27°08' W 014°30'918.6
2018-Mar-29 16:31N 27°01' W 014°37'918.9
2018-Mar-29 16:01N 26°54' W 014°44'1018.9
2018-Mar-29 15:27N 26°45' W 014°50'60617.9
2018-Mar-28 05:39N 17°16' W 018°35'418.3
2018-Mar-28 05:26N 17°12' W 018°35'918.3
2018-Mar-28 04:57N 17°04' W 018°35'3218.4
2018-Mar-28 03:14N 16°32' W 018°35'518.4
2018-Mar-28 02:59N 16°27' W 018°35'3218.5
2018-Mar-28 01:14N 15°55' W 018°35'418.4
2018-Mar-28 01:00N 15°51' W 018°35'1018.1
2018-Mar-28 00:29N 15°41' W 018°35'1018.2
2018-Mar-27 23:57N 15°32' W 018°35'818.3
2018-Mar-27 23:29N 15°23' W 018°35'1518.1
2018-Mar-27 22:38N 15°08' W 018°35'218.3
2018-Mar-27 22:30N 15°05' W 018°35'918.4
2018-Mar-27 22:00N 14°56' W 018°35'1418.6
2018-Mar-27 21:17N 14°43' W 018°35'719.1
2018-Mar-27 20:56N 14°36' W 018°35'919.2
2018-Mar-27 20:29N 14°27' W 018°35'919.1
2018-Mar-27 20:00N 14°18' W 018°35'1018.7
2018-Mar-27 19:29N 14°08' W 018°35'918.6
2018-Mar-27 19:01N 13°60' W 018°35'918.5
2018-Mar-27 18:31N 13°50' W 018°35'918.6
2018-Mar-27 18:01N 13°41' W 018°34'1718.6
2018-Mar-27 17:06N 13°24' W 018°33'318.9
2018-Mar-27 16:57N 13°22' W 018°33'818.6
2018-Mar-27 16:31N 13°13' W 018°31'918.6
2018-Mar-27 16:01N 13°04' W 018°29'1018.7
2018-Mar-27 15:30N 12°55' W 018°28'918.9
2018-Mar-27 15:01N 12°46' W 018°26'1218.8
2018-Mar-27 14:24N 12°34' W 018°24'918.6
2018-Mar-27 13:54N 12°25' W 018°22'818.3
2018-Mar-27 13:29N 12°18' W 018°21'1118.3
2018-Mar-27 12:52N 12°07' W 018°18'718.6
2018-Mar-27 12:31N 12°01' W 018°16'918.4
2018-Mar-27 12:00N 11°52' W 018°12'918.4
2018-Mar-27 11:30N 11°44' W 018°08'918.7
2018-Mar-27 11:00N 11°36' W 018°03'918.7
2018-Mar-27 10:31N 11°28' W 017°58'1019.0
2018-Mar-27 10:00N 11°19' W 017°54'1019.2
2018-Mar-27 09:31N 11°11' W 017°50'1019.2
2018-Mar-27 09:01N 11°02' W 017°45'918.7
2018-Mar-27 08:31N 10°54' W 017°40'918.5
2018-Mar-27 08:01N 10°47' W 017°34'1018.9
2018-Mar-27 07:30N 10°40' W 017°28'919.2
2018-Mar-27 07:01N 10°33' W 017°21'1019.5
2018-Mar-27 06:30N 10°25' W 017°15'1019.5
2018-Mar-27 06:01N 10°18' W 017°09'1019.5
2018-Mar-27 05:29N 10°10' W 017°02'919.4
2018-Mar-27 05:01N 10°03' W 016°56'1019.3
2018-Mar-27 04:31N 09°56' W 016°49'1419.2
2018-Mar-27 03:47N 09°45' W 016°40'719.6
2018-Mar-27 03:25N 09°40' W 016°35'919.2
2018-Mar-27 02:58N 09°33' W 016°30'919.0
2018-Mar-27 02:31N 09°27' W 016°24'1019.2
2018-Mar-27 01:59N 09°19' W 016°17'1219.2
2018-Mar-27 01:21N 09°10' W 016°09'719.2
2018-Mar-27 01:00N 09°05' W 016°05'1019.4
2018-Mar-27 00:31N 08°58' W 015°59'1019.5
2018-Mar-27 00:01N 08°50' W 015°52'1019.4
2018-Mar-26 23:31N 08°43' W 015°46'1019.2
2018-Mar-26 23:00N 08°35' W 015°39'919.2
2018-Mar-26 22:31N 08°28' W 015°33'1019.0
2018-Mar-26 22:00N 08°21' W 015°26'1418.9
2018-Mar-26 21:17N 08°12' W 015°17'919.0
2018-Mar-26 20:48N 08°05' W 015°10'619.0
2018-Mar-26 20:30N 08°01' W 015°06'1018.9
2018-Mar-26 19:59N 07°54' W 014°59'919.1
2018-Mar-26 19:31N 07°48' W 014°53'1019.2
2018-Mar-26 19:00N 07°41' W 014°46'  
Track history (hours):
 
Tides and Currents Weather Stations Pressure Air Temp Water Temp Dewpoint Dewpoint Depression Visibility Wind Speed Wind Dir Waves Ship Positions

LNG Borno

Last reported at 2018-Apr-05 06:32 UTC. Time now 2018-Apr-24 10:16 UTC.
Position N 27°48' W 013°53'.
Warning: this ship's position is 19 days out of date.

Length 285 m; draft 9.2 m.

Type: Ship (hazmat cat A). MMSI: 310543000.

Date/timePositionNaut miles runAvg speedWind from/ knotsBaromVisibWave heightAir tempDewpointWater temp
2018-Apr-05 06:32N 27°48' W 013°53'120.0
2018-Apr-05 06:30N 27°48' W 013°53'1520.3
2018-Apr-05 05:46N 28°00' W 013°43'720.4
2018-Apr-05 05:26N 28°06' W 013°38'2920.4
2018-Apr-05 04:00N 28°30' W 013°20'1020.2
2018-Apr-05 03:30N 28°39' W 013°14'1020.3
2018-Apr-05 03:00N 28°47' W 013°07'1020.5
2018-Apr-05 02:30N 28°56' W 013°01'56619.3
2018-Apr-03 21:14N 35°59' W 005°35'416.6
2018-Apr-03 21:01N 35°59' W 005°30'816.9
2018-Apr-03 20:31N 36°01' W 005°20'22115.8
2018-Apr-03 06:33N 37°16' W 001°01'215.7
2018-Apr-03 06:23N 37°17' W 000°58'615.5
2018-Apr-03 06:00N 37°21' W 000°52'815.1
2018-Apr-03 05:28N 37°27' W 000°45'715.2
2018-Apr-03 05:00N 37°32' W 000°38'815.1
2018-Apr-03 04:30N 37°37' W 000°31'815.4
2018-Apr-03 04:00N 37°43' W 000°25'815.6
2018-Apr-03 03:30N 37°49' W 000°19'715.1
2018-Apr-03 03:00N 37°55' W 000°14'714.8
2018-Apr-03 02:30N 38°02' W 000°09'2415.3
2018-Apr-03 00:55N 38°22' E 000°07'715.0
2018-Apr-03 00:28N 38°28' E 000°12'17515.8
2018-Apr-02 13:25N 40°59' E 002°06'715.3
2018-Apr-02 12:59N 41°05' E 002°10'714.3
2018-Apr-02 12:30N 41°11' E 002°12'713.4
2018-Apr-02 12:00N 41°18' E 002°10'3 5.2
2018-Apr-02 11:30N 41°21' E 002°10'0 0.0
2018-Apr-02 11:00N 41°21' E 002°10'0 0.0
2018-Apr-02 10:30N 41°21' E 002°10'0 0.0
2018-Apr-01 12:04N 41°20' E 002°10'0 4.4
2018-Apr-01 12:00N 41°20' E 002°10'3 5.9
2018-Apr-01 11:30N 41°17' E 002°11'4 8.8
2018-Apr-01 11:00N 41°13' E 002°12'612.7
2018-Apr-01 10:30N 41°07' E 002°12'917.7
2018-Apr-01 10:00N 40°59' E 002°06'21818.6
2018-Mar-31 22:18N 37°50' W 000°15'1318.9
2018-Mar-31 21:37N 37°40' W 000°25'218.7
2018-Mar-31 21:30N 37°38' W 000°27'918.7
2018-Mar-31 21:00N 37°31' W 000°34'1019.4
2018-Mar-31 20:30N 37°24' W 000°42'1019.3
2018-Mar-31 20:00N 37°17' W 000°51'919.1
2018-Mar-31 19:30N 37°11' W 001°00'1319.1
2018-Mar-31 18:50N 37°03' W 001°13'20318.8
2018-Mar-31 08:00N 35°60' W 005°13'1122.7
2018-Mar-31 07:31N 35°57' W 005°27'56018.2
2018-Mar-30 00:48N 29°04' W 012°55'618.2
2018-Mar-30 00:27N 28°59' W 012°59'918.2
2018-Mar-29 23:59N 28°51' W 013°04'918.5
2018-Mar-29 23:29N 28°44' W 013°10'918.9
2018-Mar-29 23:00N 28°36' W 013°16'918.6
2018-Mar-29 22:30N 28°28' W 013°22'918.3
2018-Mar-29 22:00N 28°21' W 013°27'1418.3
2018-Mar-29 21:15N 28°09' W 013°36'618.6
2018-Mar-29 20:55N 28°04' W 013°40'818.5
2018-Mar-29 20:30N 27°58' W 013°44'918.6
2018-Mar-29 20:01N 27°50' W 013°51'918.6
2018-Mar-29 19:30N 27°43' W 013°58'918.4
2018-Mar-29 19:00N 27°36' W 014°04'918.2
2018-Mar-29 18:30N 27°29' W 014°11'918.1
2018-Mar-29 18:01N 27°22' W 014°17'1018.1
2018-Mar-29 17:29N 27°15' W 014°24'918.3
2018-Mar-29 17:01N 27°08' W 014°30'918.6
2018-Mar-29 16:31N 27°01' W 014°37'918.9
2018-Mar-29 16:01N 26°54' W 014°44'1018.9
2018-Mar-29 15:27N 26°45' W 014°50'60617.9
2018-Mar-28 05:39N 17°16' W 018°35'418.3
2018-Mar-28 05:26N 17°12' W 018°35'918.3
2018-Mar-28 04:57N 17°04' W 018°35'3218.4
2018-Mar-28 03:14N 16°32' W 018°35'518.4
2018-Mar-28 02:59N 16°27' W 018°35'3218.5
2018-Mar-28 01:14N 15°55' W 018°35'418.4
2018-Mar-28 01:00N 15°51' W 018°35'1018.1
2018-Mar-28 00:29N 15°41' W 018°35'1018.2
2018-Mar-27 23:57N 15°32' W 018°35'818.3
2018-Mar-27 23:29N 15°23' W 018°35'1518.1
2018-Mar-27 22:38N 15°08' W 018°35'218.3
2018-Mar-27 22:30N 15°05' W 018°35'918.4
2018-Mar-27 22:00N 14°56' W 018°35'1418.6
2018-Mar-27 21:17N 14°43' W 018°35'719.1
2018-Mar-27 20:56N 14°36' W 018°35'919.2
2018-Mar-27 20:29N 14°27' W 018°35'919.1
2018-Mar-27 20:00N 14°18' W 018°35'1018.7
2018-Mar-27 19:29N 14°08' W 018°35'918.6
2018-Mar-27 19:01N 13°60' W 018°35'918.5
2018-Mar-27 18:31N 13°50' W 018°35'918.6
2018-Mar-27 18:01N 13°41' W 018°34'1718.6
2018-Mar-27 17:06N 13°24' W 018°33'318.9
2018-Mar-27 16:57N 13°22' W 018°33'818.6
2018-Mar-27 16:31N 13°13' W 018°31'918.6
2018-Mar-27 16:01N 13°04' W 018°29'1018.7
2018-Mar-27 15:30N 12°55' W 018°28'918.9
2018-Mar-27 15:01N 12°46' W 018°26'1218.8
2018-Mar-27 14:24N 12°34' W 018°24'918.6
2018-Mar-27 13:54N 12°25' W 018°22'818.3
2018-Mar-27 13:29N 12°18' W 018°21'1118.3
2018-Mar-27 12:52N 12°07' W 018°18'718.6
2018-Mar-27 12:31N 12°01' W 018°16'918.4
2018-Mar-27 12:00N 11°52' W 018°12'918.4
2018-Mar-27 11:30N 11°44' W 018°08'918.7
2018-Mar-27 11:00N 11°36' W 018°03'918.7
2018-Mar-27 10:31N 11°28' W 017°58'1019.0
2018-Mar-27 10:00N 11°19' W 017°54'1019.2
2018-Mar-27 09:31N 11°11' W 017°50'1019.2
2018-Mar-27 09:01N 11°02' W 017°45'918.7
2018-Mar-27 08:31N 10°54' W 017°40'918.5
2018-Mar-27 08:01N 10°47' W 017°34'1018.9
2018-Mar-27 07:30N 10°40' W 017°28'919.2
2018-Mar-27 07:01N 10°33' W 017°21'1019.5
2018-Mar-27 06:30N 10°25' W 017°15'1019.5
2018-Mar-27 06:01N 10°18' W 017°09'1019.5
2018-Mar-27 05:29N 10°10' W 017°02'919.4
2018-Mar-27 05:01N 10°03' W 016°56'1019.3
2018-Mar-27 04:31N 09°56' W 016°49'1419.2
2018-Mar-27 03:47N 09°45' W 016°40'719.6
2018-Mar-27 03:25N 09°40' W 016°35'919.2
2018-Mar-27 02:58N 09°33' W 016°30'919.0
2018-Mar-27 02:31N 09°27' W 016°24'1019.2
2018-Mar-27 01:59N 09°19' W 016°17'1219.2
2018-Mar-27 01:21N 09°10' W 016°09'719.2
2018-Mar-27 01:00N 09°05' W 016°05'1019.4
2018-Mar-27 00:31N 08°58' W 015°59'1019.5
2018-Mar-27 00:01N 08°50' W 015°52'1019.4
2018-Mar-26 23:31N 08°43' W 015°46'1019.2
2018-Mar-26 23:00N 08°35' W 015°39'919.2
2018-Mar-26 22:31N 08°28' W 015°33'1019.0
2018-Mar-26 22:00N 08°21' W 015°26'1418.9
2018-Mar-26 21:17N 08°12' W 015°17'919.0
2018-Mar-26 20:48N 08°05' W 015°10'619.0
2018-Mar-26 20:30N 08°01' W 015°06'1018.9
2018-Mar-26 19:59N 07°54' W 014°59'919.1
2018-Mar-26 19:31N 07°48' W 014°53'1019.2
2018-Mar-26 19:00N 07°41' W 014°46'  

Dump ship's entire track history